WSAP/QPG METAR and TAF weather

Enter ICAO airport designator
Station Type Date Time Source
WSAP METAR 2020/01/21 15:00 UTC NOAA

WSAP 211500Z 03006KT 9999 FEW018 BKN300 27/25 Q1014


Station Type Date Time Source
WSAP Decoded METAR 2020/01/21 15:00 UTC NOAA

Singapore / Paya Lebar, Singapore (WSAP) 01-22N 103-55E 32M
Jan 21, 2020 - 10:00 AM EST / 2020.01.21 1500 UTC
Wind: from the NNE (030 degrees) at 7 MPH (6 KT):0
Visibility: greater than 7 mile(s):0
Sky conditions: mostly cloudy
Temperature: 80 F (27 C)
Dew Point: 77 F (25 C)
Relative Humidity: 88%
Pressure (altimeter): 29.94 in. Hg (1014 hPa)
ob: WSAP 211500Z 03006KT 9999 FEW018 BKN300 27/25 Q1014
cycle: 15

Station Type Date Time Source
WSAP TAF 2020/01/21 12:09 UTC NOAA

TAF WSAP 211100Z 2112/2218 03009KT 9999 FEW015 SCT020

Example: see airport list